Flight Track Log - Related Links

Times and Time Zones

All times are in EDT time to prevent confusion due to time zone crossing. See the SWA543 flight status page for this flight to view local times or setup timezone preferences in your user account.

Time Position Orientation Groundspeed Altitude Reporting Facility
EDT Latitude Longitude Course Direction KTS MPH feet Rate Location/Type
08:08PM 36.0775 -115.0558 89° East 220 253 4,200  Level Los Angeles Center
08:09PM 36.0769 -115.0247 91° East 206 237 5,200 2,060 Climbing Los Angeles Center
08:09PM 36.0756 -114.9581 91° East 279 321 6,500 2,903 Climbing Los Angeles Center
08:10PM 36.0700 -114.9089 98° East 267 307 8,200 2,733 Climbing Los Angeles Center
08:11PM 36.0547 -114.8081 101° East 296 341 10,600 2,855 Climbing Los Angeles Center
08:12PM 36.0381 -114.6933 100° East 333 383 14,100 2,710 Climbing Los Angeles Center
08:13PM 36.0214 -114.5736 100° East 350 403 16,200 2,390 Climbing Los Angeles Center
08:14PM 36.0028 -114.4400 100° East 389 448 19,000 2,488 Climbing Los Angeles Center
08:15PM 35.9825 -114.3058 101° East 397 457 21,300 2,032 Climbing Los Angeles Center
08:16PM 35.9617 -114.1619 100° East 420 483 23,200 2,129 Climbing Los Angeles Center
08:17PM 35.9347 -113.9825 100° East 440 506 25,700 2,081 Climbing Los Angeles Center
08:18PM 35.8581 -113.8567 127° Southeast 464 534 27,500 1,597 Climbing Los Angeles Center
08:19PM 35.7650 -113.7442 136° Southeast 466 536 29,000 774 Climbing Los Angeles Center
08:20PM 35.6658 -113.6239 135° Southeast 492 566 29,100  Climbing Los Angeles Center
08:21PM 35.5617 -113.4972 135° Southeast 525 604 29,000 -48 Descending Los Angeles Center
08:22PM 35.4608 -113.3769 136° Southeast 515 593 29,000  Level Los Angeles Center
08:23PM 35.3689 -113.2411 130° Southeast 506 582 29,000  Level Los Angeles Center
08:24PM 35.2900 -113.0636 119° Southeast 495 570 29,000  Level Los Angeles Center
08:25PM 35.2250 -112.9214 119° Southeast 506 582 29,000  Level Los Angeles Center
08:26PM 35.1733 -112.8128 120° Southeast 505 581 29,000  Level Albuquerque Center
08:27PM 35.0642 -112.7094 142° Southeast 499 574 29,000  Level Albuquerque Center
08:28PM 34.9475 -112.6200 148° Southeast 498 573 29,000 -537 Level Albuquerque Center
08:29PM 34.8308 -112.5300 148° Southeast 498 573 27,900 -2,000 Descending Albuquerque Center
08:30PM 34.6936 -112.4219 147° Southeast 493 567 24,900 -2,488 Descending Albuquerque Center
08:31PM 34.5933 -112.3442 147° Southeast 478 550 22,800 -2,098 Descending Albuquerque Center
08:32PM 34.4883 -112.2631 148° Southeast 456 525 20,600 -1,377 Descending Albuquerque Center
08:33PM 34.3836 -112.2136 159° South 412 474 20,000 -787 Descending Albuquerque Center
08:34PM 34.2789 -112.1875 168° South 388 447 19,000 -1,707 Descending Albuquerque Center
08:35PM 34.1508 -112.1531 167° South 393 452 16,500 -1,854 Descending Albuquerque Center
08:36PM 34.0483 -112.1267 168° South 381 438 15,200 -1,525 Descending Albuquerque Center
08:37PM 33.9492 -112.1008 168° South 370 426 13,400 -1,707 Descending Albuquerque Center
08:38PM 33.8544 -112.0772 168° South 355 409 11,700 -1,659 Descending Albuquerque Center
08:39PM 33.7644 -112.0547 168° South 336 387 10,000 -836 Descending Albuquerque Center
08:40PM 33.6872 -112.0408 171° South 279 321 10,000 -439 Level Albuquerque Center
08:41PM 33.6008 -112.0256 172° South 261 300 9,100 -927 Descending Albuquerque Center
08:42PM 33.5381 -111.9872 153° Southeast 266 306 8,100 -836 Descending Albuquerque Center
08:43PM 33.5275 -111.9047 99° East 251 289 7,400 -927 Descending Albuquerque Center
08:44PM 33.5278 -111.8272 90° East 237 273 6,200 -927 Descending Albuquerque Center
08:45PM 33.5108 -111.7586 106° East 234 269 5,500 -590 Descending Albuquerque Center
08:46PM 33.4575 -111.7711 191° South 210 242 5,000 -541 Descending Albuquerque Center
08:47PM 33.4406 -111.8258 250° West 176 203 4,400 -927 Descending Albuquerque Center
08:48PM 33.4408 -111.8789 270° West 161 185 3,100 -1,073 Descending Albuquerque Center
08:50PM 33.4408 -111.9264 270° West 145 167 2,200 -787 Descending Albuquerque Center
08:51PM 33.4408 -111.9731 270° West 141 162 1,500 -689 Descending Albuquerque Center

Login

Don't have an account? Register now (free) for customized features, flight alerts, and more!